Terminal Aerodrome Forecast
Issued by NWS Brownsville, TX

Current Version | Previous Version | Text Only | Print | Product List | Glossary Off
Versions: 1 2 3 4 5 6 7 8 9 10 11 12

644
FTUS44 KBRO 121720
TAFHRL
TAF
KHRL 121720Z 1218/1318 18013G19KT P6SM FEW050
     FM130200 15007KT P6SM FEW250
     FM130600 17005KT 5SM BR FEW250
     FM131000 15005KT 1SM BR VV007
     FM131400 16005KT 6SM BR SCT006=

USA.gov is the U.S. government's official web portal to all federal, state and local government web resources and services.